Time;durP1;ratioP1;P1;durP2;ratioP2;P2;SDS_P1;SDS_P2;PMS_P1;PMS_P2;Temp;Humidity;BMP_temperature;BMP_pressure;BME280_temperature;BME280_humidity;BME280_pressure;Samples;Min_cycle;Max_cycle;Signal;HPM_P1;HPM_P2
2022/06/23 00:00:31;;;;;;;4.80;1.80;;;13.80;99.90;;;;;;5055147;28;20102;-71
2022/06/23 00:02:57;;;;;;;;;;;13.80;99.90;;;;;;5038792;28;20037;-71
2022/06/23 00:05:26;;;;;;;3.30;1.73;;;13.80;99.90;;;;;;5055074;28;19962;-71
2022/06/23 00:07:56;;;;;;;3.58;1.90;;;13.70;99.90;;;;;;5054964;28;20080;-72
2022/06/23 00:10:32;;;;;;;3.40;1.88;;;13.70;99.90;;;;;;5038525;28;20044;-71
2022/06/23 00:12:58;;;;;;;3.47;1.80;;;13.70;99.90;;;;;;5054918;28;20044;-71
2022/06/23 00:15:36;;;;;;;3.50;1.25;;;14.20;99.90;;;;;;5054878;28;20055;-71
2022/06/23 00:18:05;;;;;;;3.65;1.77;;;13.60;99.90;;;;;;5054851;28;20571;-71
2022/06/23 00:20:51;;;;;;;2.08;1.40;;;13.50;99.90;;;;;;5054700;28;20037;-71
2022/06/23 00:23:22;;;;;;;2.97;1.70;;;13.50;99.90;;;;;;5054762;28;20037;-71
2022/06/23 00:25:50;;;;;;;3.15;1.80;;;13.50;99.90;;;;;;5054909;28;20480;-71
2022/06/23 00:28:23;;;;;;;2.85;1.58;;;13.30;99.90;;;;;;5054866;28;20049;-71
2022/06/23 00:30:53;;;;;;;3.35;1.92;;;13.50;99.90;;;;;;5037889;28;20041;-71
2022/06/23 00:33:40;;;;;;;1.93;1.40;;;13.40;99.90;;;;;;5054586;28;20047;-71
2022/06/23 00:36:41;;;;;;;3.13;1.83;;;13.40;99.90;;;;;;5054513;28;20051;-71
2022/06/23 00:39:19;;;;;;;;;;;13.40;99.90;;;;;;5054780;28;20136;-71
2022/06/23 00:41:45;;;;;;;2.63;1.55;;;13.40;99.90;;;;;;5054329;28;19956;-71
2022/06/23 00:44:22;;;;;;;3.00;1.70;;;13.30;99.90;;;;;;5054283;28;20059;-71
2022/06/23 00:46:52;;;;;;;5.57;1.65;;;13.60;99.90;;;;;;5054243;28;20052;-71
2022/06/23 00:49:20;;;;;;;6.03;1.80;;;13.20;99.90;;;;;;5054511;28;20060;-71
2022/06/23 00:51:53;;;;;;;5.30;1.98;;;13.30;99.90;;;;;;5054156;28;20045;-71
2022/06/23 00:54:34;;;;;;;4.05;1.60;;;13.20;99.90;;;;;;5037579;28;20041;-72
2022/06/23 00:57:22;;;;;;;3.50;1.50;;;13.20;99.90;;;;;;5054130;28;20373;-71
2022/06/23 01:00:00;;;;;;;2.75;1.65;;;13.20;99.90;;;;;;5054054;28;20087;-72
2022/06/23 01:02:42;;;;;;;4.57;2.28;;;13.10;99.90;;;;;;5037574;28;20045;-72
2022/06/23 01:05:28;;;;;;;3.75;2.22;;;13.20;99.90;;;;;;5037248;28;20095;-71
2022/06/23 01:08:03;;;;;;;3.85;2.00;;;13.30;99.90;;;;;;5054128;28;20094;-71
2022/06/23 01:10:56;;;;;;;4.00;1.95;;;13.70;99.90;;;;;;5037224;28;20041;-71
2022/06/23 01:13:43;;;;;;;3.78;1.73;;;13.10;99.90;;;;;;5053727;28;20048;-71
2022/06/23 01:16:16;;;;;;;5.35;1.98;;;;;;;;;;5053948;28;20123;-71
2022/06/23 01:19:05;;;;;;;4.72;2.58;;;13.10;99.90;;;;;;5037006;28;20044;-71
2022/06/23 01:21:43;;;;;;;3.92;2.30;;;13.00;99.90;;;;;;5035754;28;20037;-71
2022/06/23 01:24:33;;;;;;;4.38;1.98;;;13.10;99.90;;;;;;5053618;28;20036;-71
2022/06/23 01:27:43;;;;;;;3.75;2.10;;;13.70;99.90;;;;;;5053497;28;20044;-71
2022/06/23 01:30:10;;;;;;;3.92;2.22;;;12.90;99.90;;;;;;5016544;28;20045;-71
2022/06/23 01:32:43;;;;;;;3.63;2.22;;;13.10;99.90;;;;;;5053407;28;20044;-72
2022/06/23 01:35:15;;;;;;;4.07;1.70;;;12.90;99.90;;;;;;5053366;28;20053;-72
2022/06/23 01:37:48;;;;;;;4.70;2.10;;;13.00;99.90;;;;;;5053085;28;20485;-72
2022/06/23 01:40:29;;;;;;;4.50;2.15;;;12.80;99.90;;;;;;5053303;28;20447;-71
2022/06/23 01:43:07;;;;;;;5.82;2.47;;;12.80;99.90;;;;;;5053217;28;20033;-71
2022/06/23 01:45:43;;;;;;;6.82;2.58;;;12.80;99.90;;;;;;5053210;28;20037;-72
2022/06/23 01:48:13;;;;;;;3.80;2.17;;;12.80;99.90;;;;;;5053135;28;20064;-71
2022/06/23 01:50:53;;;;;;;4.47;2.17;;;12.80;99.90;;;;;;5036452;28;20045;-71
2022/06/23 01:53:27;;;;;;;5.68;2.40;;;12.80;99.90;;;;;;5053309;28;20044;-71
2022/06/23 01:56:17;;;;;;;4.35;2.15;;;12.80;99.90;;;;;;5036408;28;20412;-71
2022/06/23 01:58:58;;;;;;;4.38;2.40;;;12.80;99.90;;;;;;5036230;28;20052;-71
2022/06/23 02:01:46;;;;;;;4.82;2.30;;;12.80;99.90;;;;;;5053188;28;20442;-71
2022/06/23 02:04:36;;;;;;;6.85;2.65;;;12.70;99.90;;;;;;5052890;28;20045;-71
2022/06/23 02:07:22;;;;;;;4.60;2.42;;;12.70;99.90;;;;;;5052797;28;20051;-71
2022/06/23 02:09:52;;;;;;;4.07;2.05;;;12.80;99.90;;;;;;5052002;28;20037;-71
2022/06/23 02:12:24;;;;;;;5.95;2.58;;;12.70;99.90;;;;;;5052751;28;20048;-71
2022/06/23 02:15:06;;;;;;;5.50;2.58;;;12.80;99.90;;;;;;5052893;28;20131;-71
2022/06/23 02:17:56;;;;;;;4.35;2.20;;;12.80;99.90;;;;;;5052534;28;20067;-71
2022/06/23 02:20:36;;;;;;;4.85;2.60;;;12.70;99.90;;;;;;5052539;28;20163;-71
2022/06/23 02:23:24;;;;;;;5.50;3.10;;;12.70;99.90;;;;;;5052453;28;20041;-71
2022/06/23 02:26:02;;;;;;;3.83;2.45;;;12.70;99.90;;;;;;5052648;28;20037;-71
2022/06/23 02:28:35;;;;;;;4.57;2.42;;;12.60;99.90;;;;;;5052363;28;20040;-72
2022/06/23 02:31:21;;;;;;;6.20;2.70;;;12.60;99.90;;;;;;5052320;28;20044;-71
2022/06/23 02:34:12;;;;;;;4.25;2.45;;;12.60;99.90;;;;;;5035560;28;20048;-71
2022/06/23 02:37:15;;;;;;;4.28;2.40;;;12.60;99.90;;;;;;5043870;28;20202;-71
2022/06/23 02:39:46;;;;;;;5.20;2.20;;;12.60;99.90;;;;;;5035495;28;20485;-72
2022/06/23 02:42:34;;;;;;;6.07;2.65;;;12.60;99.90;;;;;;5052407;28;20444;-72
2022/06/23 02:45:22;;;;;;;4.85;2.70;;;12.60;99.90;;;;;;5035469;28;20041;-71
2022/06/23 02:48:03;;;;;;;5.00;2.60;;;12.60;99.90;;;;;;5035747;28;20044;-72
2022/06/23 02:50:52;;;;;;;6.53;3.00;;;12.60;99.90;;;;;;5051885;28;20055;-71
2022/06/23 02:53:36;;;;;;;4.38;2.70;;;12.60;99.90;;;;;;5052197;28;20048;-71
2022/06/23 02:56:22;;;;;;;6.53;2.83;;;12.90;99.90;;;;;;5052108;28;20044;-71
2022/06/23 02:59:25;;;;;;;5.38;2.85;;;12.50;99.90;;;;;;5051231;28;20153;-71
2022/06/23 03:02:01;;;;;;;5.13;2.88;;;12.40;99.90;;;;;;5028723;28;20412;-71
2022/06/23 03:04:49;;;;;;;5.93;2.60;;;12.50;99.90;;;;;;5035195;28;20041;-71
2022/06/23 03:07:31;;;;;;;5.05;2.70;;;12.60;99.90;;;;;;5051756;28;20076;-71
2022/06/23 03:10:21;;;;;;;8.38;3.28;;;12.50;99.90;;;;;;5051635;28;20056;-71
2022/06/23 03:13:06;;;;;;;4.63;2.70;;;12.50;99.90;;;;;;5051620;28;20055;-71
2022/06/23 03:15:35;;;;;;;6.90;2.60;;;12.40;99.90;;;;;;5051621;28;20041;-71
2022/06/23 03:18:15;;;;;;;5.25;2.80;;;12.50;99.90;;;;;;5034774;28;20048;-72
2022/06/23 03:20:54;;;;;;;6.72;3.00;;;12.80;99.90;;;;;;5035207;28;20365;-71
2022/06/23 03:23:54;;;;;;;11.80;2.88;;;12.40;99.90;;;;;;5051812;28;20136;-71
2022/06/23 03:26:34;;;;;;;4.50;2.13;;;12.50;99.90;;;;;;5051776;28;20044;-72
2022/06/23 03:29:21;;;;;;;4.45;2.75;;;12.40;99.90;;;;;;5051424;28;20045;-71
2022/06/23 03:31:54;;;;;;;6.88;3.22;;;12.50;99.90;;;;;;5051652;28;20497;-71
2022/06/23 03:34:26;;;;;;;6.80;3.08;;;12.40;99.90;;;;;;5051494;28;20413;-71
2022/06/23 03:36:57;;;;;;;4.68;2.70;;;12.50;99.90;;;;;;5051458;28;20048;-71
2022/06/23 03:42:37;;;;;;;6.22;3.30;;;12.50;99.90;;;;;;5051668;28;20303;-72
2022/06/23 03:45:17;;;;;;;8.60;2.90;;;13.00;99.90;;;;;;5051299;28;20052;-71
2022/06/23 03:48:04;;;;;;;6.57;2.92;;;12.50;99.90;;;;;;5051527;28;20476;-71
2022/06/23 03:50:49;;;;;;;7.65;2.67;;;12.60;99.90;;;;;;5051549;28;20048;-72
2022/06/23 03:53:30;;;;;;;6.25;3.03;;;12.40;99.90;;;;;;5034882;28;20566;-71
2022/06/23 03:56:03;;;;;;;10.05;4.03;;;12.60;99.90;;;;;;5051176;28;20048;-71
2022/06/23 03:58:28;;;;;;;5.75;2.60;;;12.60;99.90;;;;;;5051116;28;20052;-71
2022/06/23 04:01:03;;;;;;;5.90;2.60;;;12.50;99.90;;;;;;5051356;28;20431;-71
2022/06/23 04:03:36;;;;;;;9.07;3.25;;;12.60;99.90;;;;;;5034521;28;20037;-72
2022/06/23 04:06:39;;;;;;;5.80;3.08;;;12.60;99.90;;;;;;5051412;28;20559;-72
2022/06/23 04:09:25;;;;;;;6.38;3.53;;;12.60;99.90;;;;;;5047190;28;20048;-72
2022/06/23 04:12:07;;;;;;;7.10;3.38;;;12.60;99.90;;;;;;5034446;28;20044;-72
2022/06/23 04:14:33;;;;;;;5.13;2.65;;;12.70;99.90;;;;;;5034498;28;20052;-72
2022/06/23 04:17:20;;;;;;;7.50;3.80;;;12.70;99.90;;;;;;5051276;28;20409;-72
2022/06/23 04:19:59;;;;;;;7.22;3.42;;;12.70;99.90;;;;;;5034345;28;20044;-72
2022/06/23 04:22:54;;;;;;;5.13;2.45;;;12.80;99.90;;;;;;5050963;28;20045;-72
2022/06/23 04:25:45;;;;;;;7.38;3.58;;;12.80;99.90;;;;;;5008543;28;20174;-72
2022/06/23 04:28:42;;;;;;;7.07;3.60;;;12.90;99.90;;;;;;5050871;28;20168;-72
2022/06/23 04:31:12;;;;;;;5.38;3.60;;;13.00;99.90;;;;;;5046150;28;20136;-72
2022/06/23 04:33:39;;;;;;;5.78;3.42;;;12.90;99.90;;;;;;5053924;28;20051;-72
2022/06/23 04:36:16;;;;;;;6.25;3.25;;;12.90;99.90;;;;;;5054458;28;20037;-72
2022/06/23 04:39:29;;;;;;;8.10;3.40;;;13.00;99.90;;;;;;5054194;28;20053;-72
2022/06/23 04:42:25;;;;;;;6.88;3.20;;;13.00;99.90;;;;;;5024091;28;20040;-72
2022/06/23 04:44:59;;;;;;;7.70;3.38;;;13.00;99.90;;;;;;5037793;28;20037;-72
2022/06/23 04:47:31;;;;;;;6.47;3.45;;;13.10;99.90;;;;;;5054289;28;20045;-72
2022/06/23 04:50:03;;;;;;;7.43;3.67;;;13.10;99.90;;;;;;5037627;28;20045;-72
2022/06/23 04:52:51;;;;;;;8.07;3.30;;;13.20;99.90;;;;;;5054219;28;20064;-72
2022/06/23 04:55:25;;;;;;;9.15;3.90;;;13.20;99.90;;;;;;5054179;28;20093;-72
2022/06/23 04:57:54;;;;;;;8.95;3.70;;;13.30;99.90;;;;;;5054065;28;20099;-72
2022/06/23 05:00:46;;;;;;;8.82;3.60;;;13.40;99.90;;;;;;5054076;28;20080;-72
2022/06/23 05:03:35;;;;;;;6.43;3.42;;;13.50;99.90;;;;;;5030859;28;20095;-72
2022/06/23 05:06:00;;;;;;;5.65;3.28;;;13.60;99.90;;;;;;5037580;28;20041;-72
2022/06/23 05:08:30;;;;;;;7.05;3.60;;;13.70;99.90;;;;;;5053968;28;20052;-72
2022/06/23 05:11:21;;;;;;;7.28;3.60;;;13.80;99.90;;;;;;5054184;28;20044;-71
2022/06/23 05:13:53;;;;;;;6.75;3.20;;;13.90;99.90;;;;;;5053847;28;20091;-72
2022/06/23 05:16:30;;;;;;;8.40;3.90;;;14.10;99.90;;;;;;5053782;28;20037;-72
2022/06/23 05:19:00;;;;;;;6.75;3.42;;;14.20;99.90;;;;;;5053636;28;20148;-73
2022/06/23 05:21:52;;;;;;;8.25;3.80;;;14.30;99.90;;;;;;5037045;28;20095;-72
2022/06/23 05:24:19;;;;;;;;;;;14.40;99.90;;;;;;5047085;28;20128;-73
2022/06/23 05:26:50;;;;;;;11.32;3.70;;;14.50;99.90;;;;;;5053845;28;20331;-73
2022/06/23 05:29:18;;;;;;;;;;;14.70;99.90;;;;;;5053963;28;20044;-73
2022/06/23 05:31:48;;;;;;;6.53;3.15;;;14.70;99.90;;;;;;5036850;28;19917;-72
2022/06/23 05:34:24;;;;;;;8.10;3.33;;;14.90;99.90;;;;;;5053441;28;20099;-71
2022/06/23 05:37:09;;;;;;;5.32;3.28;;;15.10;99.90;;;;;;5053177;28;20052;-70
2022/06/23 05:40:07;;;;;;;6.22;2.75;;;15.20;99.90;;;;;;5053444;28;20052;-72
2022/06/23 05:42:33;;;;;;;7.32;4.00;;;15.40;99.90;;;;;;5053476;28;20080;-71
2022/06/23 05:45:04;;;;;;;7.63;3.60;;;15.50;99.90;;;;;;5035603;28;20084;-72
2022/06/23 05:47:31;;;;;;;;;;;15.70;99.90;;;;;;5037342;28;20037;-70
2022/06/23 05:50:01;;;;;;;7.10;3.65;;;15.80;99.90;;;;;;5053099;28;19917;-70
2022/06/23 05:52:38;;;;;;;8.50;3.55;;;15.90;99.90;;;;;;5036786;28;20048;-73
2022/06/23 05:55:19;;;;;;;6.95;3.53;;;16.10;99.90;;;;;;5036515;28;20130;-71
2022/06/23 05:57:55;;;;;;;6.82;3.65;;;16.20;99.90;;;;;;5036314;28;20094;-71
2022/06/23 06:00:51;;;;;;;5.13;3.38;;;16.30;99.90;;;;;;5052960;28;20040;-73
2022/06/23 06:03:25;;;;;;;6.45;4.10;;;16.50;99.90;;;;;;5015732;28;20633;-71
2022/06/23 06:05:57;;;;;;;6.70;3.85;;;16.70;99.90;;;;;;5052991;28;20401;-73
2022/06/23 06:08:31;;;;;;;6.70;3.58;;;16.80;99.90;;;;;;5052742;28;20501;-71
2022/06/23 06:11:00;;;;;;;11.70;4.22;;;17.00;99.90;;;;;;5052841;28;20045;-72
2022/06/23 06:13:37;;;;;;;5.47;3.47;;;17.10;99.90;;;;;;5052531;28;20055;-71
2022/06/23 06:16:04;;;;;;;5.22;3.30;;;17.20;99.90;;;;;;5036080;28;20041;-71
2022/06/23 06:18:35;;;;;;;5.03;3.17;;;17.40;99.90;;;;;;5052460;28;20049;-72
2022/06/23 06:21:05;;;;;;;5.85;3.45;;;17.50;99.90;;;;;;5035772;28;20041;-72
2022/06/23 06:24:06;;;;;;;7.68;3.92;;;17.70;99.90;;;;;;5052386;28;20041;-72
2022/06/23 06:26:45;;;;;;;7.53;4.03;;;17.80;99.90;;;;;;5035733;28;20075;-73
2022/06/23 06:29:16;;;;;;;11.40;3.63;;;18.00;99.90;;;;;;5052316;28;20132;-72
2022/06/23 06:31:51;;;;;;;5.05;3.60;;;18.20;99.90;;;;;;5052202;28;20040;-72
2022/06/23 06:34:16;;;;;;;5.90;3.80;;;18.30;99.90;;;;;;5035589;28;20041;-72
2022/06/23 06:36:46;;;;;;;5.35;3.45;;;18.50;99.90;;;;;;5052205;28;20135;-72
2022/06/23 06:39:22;;;;;;;6.75;3.83;;;18.70;99.90;;;;;;5052074;28;20126;-72
2022/06/23 06:41:53;;;;;;;6.57;3.50;;;18.80;99.90;;;;;;5052420;28;20044;-72
2022/06/23 06:44:19;;;;;;;6.10;3.38;;;19.00;99.90;;;;;;5052461;28;20053;-72
2022/06/23 06:46:46;;;;;;;6.25;3.67;;;18.90;99.90;;;;;;5052326;28;20179;-70
2022/06/23 06:49:21;;;;;;;5.70;3.88;;;19.10;99.90;;;;;;5018950;28;20037;-71
2022/06/23 06:51:48;;;;;;;6.60;3.55;;;19.20;99.90;;;;;;5051973;28;20094;-71
2022/06/23 06:54:18;;;;;;;5.80;3.67;;;19.40;99.90;;;;;;5035422;28;20048;-71
2022/06/23 06:56:52;;;;;;;6.33;3.67;;;19.40;99.90;;;;;;5035034;28;20052;-71
2022/06/23 06:59:37;;;;;;;6.20;3.05;;;19.50;99.90;;;;;;5051817;28;20045;-71
2022/06/23 07:02:27;;;;;;;7.18;4.03;;;19.70;99.90;;;;;;5051754;28;20047;-72
2022/06/23 07:05:00;;;;;;;6.47;3.42;;;19.80;99.90;;;;;;5051865;28;20167;-71
2022/06/23 07:07:31;;;;;;;5.88;3.08;;;19.90;99.90;;;;;;5053310;28;20041;-72
2022/06/23 07:10:23;;;;;;;5.65;3.40;;;20.10;99.90;;;;;;5051684;28;20091;-71
2022/06/23 07:12:55;;;;;;;4.38;3.00;;;20.30;99.90;;;;;;5035302;28;20453;-71
2022/06/23 07:15:32;;;;;;;4.63;3.40;;;20.30;99.90;;;;;;5051627;28;20072;-70
2022/06/23 07:18:18;;;;;;;7.00;3.20;;;20.50;99.90;;;;;;5051528;28;20041;-70
2022/06/23 07:21:02;;;;;;;4.63;2.80;;;20.70;99.90;;;;;;5021575;28;20395;-70
2022/06/23 07:23:36;;;;;;;4.85;3.10;;;20.80;99.90;;;;;;5034916;28;20044;-70
2022/06/23 07:26:20;;;;;;;4.93;3.05;;;21.00;99.90;;;;;;5051750;28;20470;-71
2022/06/23 07:28:52;;;;;;;4.85;3.17;;;21.10;99.90;;;;;;5051722;28;20515;-70
2022/06/23 07:31:30;;;;;;;4.63;3.15;;;21.20;99.90;;;;;;5051537;28;20399;-71
2022/06/23 07:34:17;;;;;;;6.63;2.97;;;21.30;99.90;;;;;;5051385;28;20253;-70
2022/06/23 07:36:49;;;;;;;5.47;3.13;;;21.40;99.90;;;;;;5051192;28;20040;-70
2022/06/23 07:39:20;;;;;;;5.53;3.03;;;21.60;99.90;;;;;;5051367;28;20095;-70
2022/06/23 07:42:11;;;;;;;4.68;2.80;;;21.70;99.90;;;;;;5051363;28;20045;-71
2022/06/23 07:44:46;;;;;;;4.30;2.90;;;21.80;99.90;;;;;;5051378;28;20045;-70
2022/06/23 07:47:12;;;;;;;4.43;2.92;;;22.00;99.90;;;;;;5034747;28;20048;-70
2022/06/23 07:49:38;;;;;;;4.32;2.75;;;22.00;99.90;;;;;;5051333;28;20040;-71
2022/06/23 07:52:04;;;;;;;3.90;2.60;;;22.10;99.90;;;;;;5052537;28;20503;-70
2022/06/23 07:54:31;;;;;;;3.92;2.70;;;22.30;99.90;;;;;;5051209;28;20088;-70
2022/06/23 07:56:57;;;;;;;6.10;2.60;;;22.30;99.90;;;;;;5051459;28;20504;-71
2022/06/23 07:59:29;;;;;;;5.28;2.80;;;22.50;99.90;;;;;;5034723;28;20041;-71
2022/06/23 08:02:02;;;;;;;5.15;2.30;;;22.60;99.90;;;;;;5051428;28;20389;-71
2022/06/23 08:04:49;;;;;;;5.18;3.13;;;22.60;99.90;;;;;;5051166;28;20043;-71
2022/06/23 08:07:15;;;;;;;4.68;2.65;;;22.60;99.90;;;;;;5052107;28;20048;-71
2022/06/23 08:09:49;;;;;;;3.97;2.20;;;22.80;99.90;;;;;;5038768;28;20553;-71
2022/06/23 08:18:26;;;;;;;5.20;2.70;;;23.10;99.90;;;;;;5054850;28;20136;-71
2022/06/23 08:21:07;;;;;;;3.95;2.30;;;23.20;99.90;;;;;;5055147;28;20041;-71
2022/06/23 08:23:37;;;;;;;3.88;2.70;;;23.30;99.90;;;;;;5054843;28;20114;-71
2022/06/23 08:26:07;;;;;;;3.75;2.50;;;23.30;99.90;;;;;;5054981;28;20041;-71
2022/06/23 08:28:33;;;;;;;5.45;3.10;;;23.50;99.90;;;;;;5038144;28;20041;-73
2022/06/23 08:30:59;;;;;;;4.68;2.80;;;23.60;99.90;;;;;;5038040;28;20041;-71
2022/06/23 08:33:26;;;;;;;6.35;2.30;;;23.60;99.90;;;;;;5054592;28;20106;-71
2022/06/23 08:35:55;;;;;;;4.45;2.65;;;23.80;99.90;;;;;;5054553;28;20045;-71
2022/06/23 08:38:26;;;;;;;2.97;1.92;;;23.80;99.90;;;;;;5054337;28;20054;-72
2022/06/23 08:41:10;;;;;;;;;;;23.90;99.90;;;;;;5055083;28;20503;-71
2022/06/23 08:44:01;;;;;;;6.10;2.65;;;24.00;99.90;;;;;;5054428;28;19954;-71
2022/06/23 08:46:38;;;;;;;3.42;2.10;;;24.00;99.90;;;;;;5054339;28;20110;-70
2022/06/23 08:49:20;;;;;;;3.90;2.13;;;24.10;99.90;;;;;;5037959;28;20059;-71
2022/06/23 08:52:07;;;;;;;3.03;1.80;;;24.10;99.90;;;;;;5054226;28;20044;-71
2022/06/23 08:54:48;;;;;;;5.45;2.40;;;24.30;99.90;;;;;;5054499;28;20496;-71
2022/06/23 08:57:32;;;;;;;2.67;2.00;;;24.40;99.90;;;;;;5055474;28;20037;-71
2022/06/23 09:00:07;;;;;;;4.95;2.60;;;24.50;99.90;;;;;;5053985;28;20036;-71
2022/06/23 09:03:18;;;;;;;4.47;2.70;;;24.70;99.90;;;;;;5054048;28;20090;-71
2022/06/23 09:05:55;;;;;;;6.78;2.72;;;24.70;99.90;;;;;;4996931;28;20111;-71
2022/06/23 09:08:45;;;;;;;2.90;1.92;;;24.80;99.90;;;;;;4997073;28;20056;-71
2022/06/23 09:11:13;;;;;;;2.10;1.50;;;24.90;99.90;;;;;;5038850;28;20091;-70
2022/06/23 09:13:57;;;;;;;5.82;2.05;;;25.10;99.90;;;;;;5054210;28;20040;-71
2022/06/23 09:16:31;;;;;;;2.95;1.90;;;25.20;99.90;;;;;;5053816;28;20041;-71
2022/06/23 09:19:06;;;;;;;4.22;1.88;;;25.30;99.90;;;;;;5053682;28;20124;-71
2022/06/23 09:21:34;;;;;;;4.22;2.10;;;25.30;99.90;;;;;;5054004;28;20047;-71
2022/06/23 09:24:22;;;;;;;3.03;1.58;;;25.40;99.90;;;;;;5053691;28;20041;-71
2022/06/23 09:27:34;;;;;;;4.03;1.92;;;25.50;99.90;;;;;;5053554;28;20033;-72
2022/06/23 09:30:00;;;;;;;2.78;1.38;;;25.50;99.90;;;;;;4996811;28;20508;-71
2022/06/23 09:32:57;;;;;;;2.67;1.73;;;25.50;99.90;;;;;;5041276;28;20051;-71
2022/06/23 09:36:02;;;;;;;2.70;1.80;;;25.50;99.90;;;;;;5037220;28;20087;-71
2022/06/23 09:38:43;;;;;;;2.72;1.85;;;25.50;99.90;;;;;;5053255;28;20088;-71
2022/06/23 09:41:30;;;;;;;2.55;1.35;;;25.70;99.90;;;;;;5053382;28;20044;-71
2022/06/23 09:44:08;;;;;;;4.72;1.67;;;25.80;99.90;;;;;;5053300;28;20037;-71
2022/06/23 09:47:13;;;;;;;1.73;1.17;;;25.80;99.90;;;;;;5053282;28;20116;-71
2022/06/23 09:50:14;;;;;;;2.35;1.23;;;25.90;99.90;;;;;;5036584;28;20044;-71
2022/06/23 09:52:54;;;;;;;2.55;1.50;;;26.00;99.90;;;;;;5030338;28;20053;-71
2022/06/23 09:55:31;;;;;;;5.07;2.20;;;26.10;99.90;;;;;;5036566;28;20052;-70
2022/06/23 09:58:12;;;;;;;1.95;1.20;;;26.30;99.90;;;;;;5053269;28;20052;-71
2022/06/23 10:00:52;;;;;;;2.05;1.30;;;26.50;99.90;;;;;;5053036;28;20041;-71
2022/06/23 10:03:20;;;;;;;2.03;1.30;;;26.50;98.70;;;;;;5052962;28;20037;-70
2022/06/23 10:06:12;;;;;;;1.98;1.27;;;26.50;99.90;;;;;;5036281;28;20052;-70
2022/06/23 10:09:08;;;;;;;1.52;0.88;;;26.60;98.30;;;;;;5052831;28;20053;-71
2022/06/23 10:11:42;;;;;;;1.73;1.30;;;26.70;98.90;;;;;;5052982;28;20135;-71
2022/06/23 10:14:12;;;;;;;3.03;1.65;;;;;;;;;;5053884;28;20099;-71
2022/06/23 10:16:49;;;;;;;2.55;1.23;;;26.80;98.80;;;;;;5052816;28;20507;-71
2022/06/23 10:19:27;;;;;;;2.63;1.20;;;26.90;99.20;;;;;;5053965;28;20377;-71
2022/06/23 10:22:19;;;;;;;1.88;1.20;;;26.90;99.20;;;;;;5052398;28;20116;-72
2022/06/23 10:25:12;;;;;;;3.10;1.17;;;27.00;98.90;;;;;;5052362;28;20051;-72
2022/06/23 10:27:40;;;;;;;1.55;1.15;;;26.90;96.90;;;;;;5052502;28;20485;-71
2022/06/23 10:30:21;;;;;;;2.65;1.20;;;27.00;97.80;;;;;;5051739;28;20132;-71
2022/06/23 10:33:23;;;;;;;1.88;1.00;;;27.00;97.20;;;;;;5052215;28;20443;-71
2022/06/23 10:36:05;;;;;;;1.60;1.23;;;27.00;96.90;;;;;;5052182;28;20079;-71
2022/06/23 10:38:45;;;;;;;2.35;1.30;;;26.90;95.60;;;;;;5051951;28;20060;-72
2022/06/23 10:41:25;;;;;;;1.63;1.05;;;27.00;95.40;;;;;;5052375;28;20088;-71
2022/06/23 10:43:57;;;;;;;1.40;1.10;;;27.10;96.30;;;;;;5052072;28;20140;-71
2022/06/23 10:46:40;;;;;;;1.88;1.05;;;27.10;96.30;;;;;;5052428;28;20545;-70
2022/06/23 10:49:36;;;;;;;1.77;1.33;;;27.10;94.90;;;;;;5035482;28;20048;-70
2022/06/23 10:52:20;;;;;;;1.48;1.10;;;27.20;95.80;;;;;;5052038;28;20045;-70
2022/06/23 10:55:04;;;;;;;2.40;1.00;;;27.30;95.80;;;;;;5052018;28;20114;-71
2022/06/23 10:58:13;;;;;;;3.25;1.10;;;27.30;95.60;;;;;;5035608;28;20103;-70
2022/06/23 11:01:16;;;;;;;2.95;1.30;;;27.30;95.60;;;;;;5023772;28;20052;-70
2022/06/23 11:03:47;;;;;;;1.50;0.82;;;27.30;95.10;;;;;;5035536;28;20040;-71
2022/06/23 11:06:50;;;;;;;2.67;0.95;;;27.40;94.70;;;;;;5052076;28;20037;-70
2022/06/23 11:09:19;;;;;;;1.77;1.10;;;27.40;93.60;;;;;;5051787;28;20053;-71
2022/06/23 11:12:39;;;;;;;1.25;0.85;;;27.50;95.00;;;;;;5051671;28;20099;-71
2022/06/23 11:15:25;;;;;;;1.25;1.15;;;27.60;95.40;;;;;;4994629;28;20038;-71
2022/06/23 11:18:03;;;;;;;0.90;0.88;;;27.80;99.90;;;;;;5047735;28;20053;-76
2022/06/23 11:20:47;;;;;;;1.42;0.93;;;27.80;99.90;;;;;;5035009;28;20037;-71
2022/06/23 11:23:30;;;;;;;2.55;1.23;;;27.80;99.90;;;;;;5051621;28;20037;-70
2022/06/23 11:26:11;;;;;;;0.85;0.80;;;27.80;99.90;;;;;;5051579;28;20170;-71
2022/06/23 11:28:47;;;;;;;2.72;1.08;;;27.80;99.90;;;;;;5051843;28;20136;-71
2022/06/23 11:31:29;;;;;;;1.33;1.02;;;27.80;99.90;;;;;;5051823;28;20067;-71
2022/06/23 11:34:11;;;;;;;1.63;0.93;;;27.90;99.90;;;;;;5051810;28;20049;-71
2022/06/23 11:37:11;;;;;;;2.45;1.30;;;28.00;99.90;;;;;;5051447;28;20124;-71
2022/06/23 11:39:54;;;;;;;1.35;0.98;;;28.20;99.90;;;;;;5034755;28;20047;-71
2022/06/23 11:42:45;;;;;;;2.28;1.30;;;28.30;99.90;;;;;;5036050;28;20076;-71
2022/06/23 11:45:46;;;;;;;1.30;1.20;;;28.10;99.20;;;;;;5055870;28;20040;-71
2022/06/23 11:48:47;;;;;;;2.03;1.20;;;28.20;99.80;;;;;;5047528;28;20049;-71
2022/06/23 11:51:33;;;;;;;1.75;1.13;;;28.30;99.90;;;;;;4982226;28;20045;-71
2022/06/23 11:54:15;;;;;;;1.13;1.00;;;28.40;99.80;;;;;;5051710;28;20049;-71
2022/06/23 11:56:41;;;;;;;1.55;1.40;;;28.40;99.90;;;;;;5039024;28;20511;-71
2022/06/23 11:59:34;;;;;;;3.97;1.20;;;28.30;99.90;;;;;;5055274;28;20041;-71
2022/06/23 12:02:00;;;;;;;2.70;1.20;;;;;;;;;;5038880;28;20480;-71
2022/06/23 12:04:41;;;;;;;2.25;1.00;;;;;;;;;;5038632;28;20073;-71
2022/06/23 12:07:28;;;;;;;2.20;1.10;;;28.60;90.50;;;;;;5038558;28;20064;-71
2022/06/23 12:09:57;;;;;;;1.25;1.10;;;28.60;91.00;;;;;;5055407;28;20045;-71
2022/06/23 12:12:23;;;;;;;1.45;1.05;;;28.70;92.10;;;;;;5038744;28;20045;-70
2022/06/23 12:14:51;;;;;;;1.38;1.20;;;28.70;91.50;;;;;;5054989;28;20051;-71
2022/06/23 12:17:39;;;;;;;1.45;1.10;;;28.80;91.20;;;;;;5054858;28;20037;-71
2022/06/23 12:20:16;;;;;;;1.42;1.30;;;28.80;91.40;;;;;;5054702;28;20070;-71
2022/06/23 12:22:49;;;;;;;1.83;1.00;;;28.80;90.80;;;;;;5055255;28;20120;-71
2022/06/23 12:25:42;;;;;;;1.73;1.10;;;28.90;90.60;;;;;;5038529;28;20043;-71
2022/06/23 12:28:27;;;;;;;1.50;1.35;;;28.90;90.80;;;;;;5054819;28;20124;-71
2022/06/23 12:31:38;;;;;;;1.40;1.20;;;29.00;88.80;;;;;;5054710;28;20095;-71
2022/06/23 12:34:04;;;;;;;1.95;0.98;;;;;;;;;;5051719;28;20202;-71
2022/06/23 12:36:37;;;;;;;1.88;1.15;;;29.20;99.90;;;;;;5054593;28;20098;-71
2022/06/23 12:39:10;;;;;;;1.65;1.23;;;29.50;99.90;;;;;;5054233;28;20150;-71
2022/06/23 12:41:49;;;;;;;2.90;1.40;;;29.40;99.80;;;;;;5037874;28;20048;-71
2022/06/23 12:44:42;;;;;;;1.58;1.10;;;29.50;98.70;;;;;;5054546;28;20134;-71
2022/06/23 12:47:38;;;;;;;1.60;1.30;;;29.50;99.30;;;;;;5054421;28;20077;-71
2022/06/23 12:50:26;;;;;;;1.75;1.20;;;29.40;99.80;;;;;;5037741;28;20049;-71
2022/06/23 12:53:22;;;;;;;1.27;1.00;;;29.60;99.90;;;;;;5053841;28;20076;-71
2022/06/23 12:56:07;;;;;;;1.67;1.40;;;29.60;99.90;;;;;;5054313;28;20132;-70
2022/06/23 12:58:43;;;;;;;1.42;1.20;;;;;;;;;;5055506;28;20044;-71
2022/06/23 13:01:15;;;;;;;2.78;1.40;;;;;;;;;;5037649;28;20041;-71
2022/06/23 13:03:51;;;;;;;1.85;1.35;;;;;;;;;;5054120;28;20041;-70
2022/06/23 13:06:27;;;;;;;1.27;1.10;;;;;;;;;;5054106;28;20072;-71
2022/06/23 13:09:02;;;;;;;2.47;1.27;;;;;;;;;;5054031;28;20134;-71
2022/06/23 13:11:31;;;;;;;1.52;1.35;;;;;;;;;;5054250;28;20484;-70
2022/06/23 13:14:12;;;;;;;1.80;1.23;;;29.70;99.90;;;;;;5054038;28;20043;-71
2022/06/23 13:16:45;;;;;;;2.83;1.48;;;30.00;97.10;;;;;;5053915;28;20059;-71
2022/06/23 13:19:34;;;;;;;3.13;1.42;;;29.80;83.20;;;;;;5037343;28;20041;-71
2022/06/23 13:22:05;;;;;;;1.50;1.10;;;29.90;85.30;;;;;;5038614;28;20045;-71
2022/06/23 13:24:34;;;;;;;1.65;1.45;;;30.00;86.60;;;;;;5054057;28;20400;-70
2022/06/23 13:27:00;;;;;;;1.38;1.10;;;30.10;87.60;;;;;;5055063;28;20535;-71
2022/06/23 13:29:46;;;;;;;2.70;1.20;;;29.00;87.00;;;;;;5053663;28;20049;-71
2022/06/23 13:32:22;;;;;;;1.65;1.20;;;30.40;95.40;;;;;;5053618;28;20099;-71
2022/06/23 13:34:51;;;;;;;2.30;1.40;;;30.30;94.50;;;;;;5053766;28;20104;-71
2022/06/23 13:37:27;;;;;;;1.40;1.20;;;30.30;94.70;;;;;;5053364;28;20065;-70
2022/06/23 13:40:16;;;;;;;2.42;1.20;;;;;;;;;;5053384;28;20045;-71
2022/06/23 13:43:03;;;;;;;2.47;1.40;;;30.40;99.90;;;;;;5037144;28;20075;-71
2022/06/23 13:45:38;;;;;;;2.08;1.33;;;30.60;98.00;;;;;;5053341;28;20037;-71
2022/06/23 13:48:28;;;;;;;1.88;1.20;;;30.50;96.50;;;;;;5053590;28;20041;-71
2022/06/23 13:50:54;;;;;;;1.98;1.27;;;;;;;;;;5053282;28;20056;-71
2022/06/23 13:53:30;;;;;;;4.03;1.40;;;;;;;;;;5053185;28;20052;-71
2022/06/23 13:56:11;;;;;;;1.60;1.10;;;;;;;;;;5053095;28;20174;-71
2022/06/23 13:58:45;;;;;;;2.10;1.50;;;;;;;;;;5053013;28;20061;-71
2022/06/23 14:01:26;;;;;;;2.00;1.23;;;;;;;;;;5052989;28;20045;-72
2022/06/23 14:04:05;;;;;;;1.55;1.00;;;;;;;;;;5052965;28;20048;-70
2022/06/23 14:06:40;;;;;;;3.03;1.67;;;30.70;81.20;;;;;;5052236;28;20037;-71